Terminal Aerodrome Forecast
Issued by NWS Dodge City, KS

Home | Current Version | Previous Version | Text Only | Print | Product List | Glossary On
Versions: 1 2 3 4 5 6 7 8 9 10 11 12 13 14 15 16 17 18 19 20 21 22 23 24 25 26 27 28 29 30 31 32 33 34 35 36 37 38 39
000
FTUS43 KDDC 272320
TAFDDC
TAF
KDDC 272320Z 2800/2824 18020G30KT P6SM SCT200
     FM280400 17015KT P6SM BKN150 WS020/18050KT
     FM281300 19019G27KT P6SM FEW250
     FM281900 21012KT P6SM FEW200=

USA.gov is the U.S. government's official web portal to all federal, state and local government web resources and services.